| time (UTC) | temp F | wind direction | speed MPH | gust MPH | rain 1hr in | rain 24hr in | rain mn in | humidity % | barometer mb |
| 20260506091550 | 52 | 45 | 4.0 | 8.0 | 0.08 | 1.06 | 1.06 | 99 | 1006.3 |
| 20260506091457 | 52 | 45 | 4.0 | 8.0 | 0.08 | 1.06 | 1.06 | 99 | 1006.2 |
| 20260506091410 | 53 | 22 | 4.0 | 9.0 | 0.08 | 1.06 | 1.06 | 99 | 1006.3 |
| 20260506091215 | 53 | 22 | 4.0 | 9.0 | 0.08 | 1.06 | 1.06 | 99 | 1006.3 |
| 20260506091024 | 53 | 22 | 3.0 | 9.0 | 0.09 | 1.06 | 1.06 | 99 | 1006.3 |
| 20260506090842 | 53 | 22 | 3.0 | 9.0 | 0.09 | 1.06 | 1.06 | 99 | 1006.3 |
| 20260506090700 | 53 | 292 | 2.0 | 5.0 | 0.09 | 1.06 | 1.06 | 99 | 1006.2 |
| 20260506090515 | 53 | 22 | 2.0 | 5.0 | 0.11 | 1.06 | 1.06 | 99 | 1006.2 |
| 20260506090335 | 52 | 22 | 2.0 | 2.0 | 0.11 | 1.06 | 1.06 | 99 | 1006.2 |
| 20260506090142 | 52 | 45 | 2.0 | 4.0 | 0.11 | 1.06 | 1.06 | 99 | 1006.2 |
| 20260506085945 | 52 | 22 | 2.0 | 6.0 | 0.13 | 1.06 | 1.06 | 99 | 1006.2 |
| 20260506085805 | 52 | 22 | 2.0 | 6.0 | 0.13 | 1.06 | 1.06 | 99 | 1006.2 |
| 20260506085615 | 52 | 22 | 3.0 | 7.0 | 0.13 | 1.06 | 1.06 | 99 | 1006.2 |
| 20260506085602 | 52 | 315 | 3.0 | 7.0 | 0.13 | 1.06 | 1.06 | 99 | 1006.2 |
| 20260506085415 | 52 | 45 | 4.0 | 7.0 | 0.13 | 1.04 | 1.04 | 99 | 1006.1 |
| 20260506085215 | 52 | 22 | 4.0 | 8.0 | 0.13 | 1.04 | 1.04 | 99 | 1006.2 |
| 20260506085025 | 52 | 292 | 3.0 | 8.0 | 0.13 | 1.04 | 1.04 | 99 | 1006.2 |
| 20260506084850 | 52 | 45 | 4.0 | 8.0 | 0.14 | 1.04 | 1.04 | 99 | 1006.1 |
| 20260506084653 | 52 | 22 | 3.0 | 7.0 | 0.14 | 1.04 | 1.04 | 99 | 1006.1 |
| 20260506084454 | 52 | 22 | 2.0 | 8.0 | 0.14 | 1.04 | 1.04 | 99 | 1006.1 |
| 20260506084310 | 52 | 22 | 2.0 | 9.0 | 0.13 | 1.02 | 1.02 | 99 | 1006.1 |
| 20260506084110 | 52 | 22 | 2.0 | 9.0 | 0.13 | 1.02 | 1.02 | 99 | 1006.1 |
| 20260506083920 | 52 | 22 | 2.0 | 9.0 | 0.13 | 1.02 | 1.02 | 99 | 1006.2 |
| 20260506083735 | 52 | 45 | 2.0 | 5.0 | 0.14 | 1.02 | 1.02 | 99 | 1006.1 |
| 20260506083715 | 52 | 22 | 2.0 | 5.0 | 0.14 | 1.02 | 1.02 | 99 | 1006.0 |
| 20260506083555 | 52 | 22 | 2.0 | 5.0 | 0.14 | 1.02 | 1.02 | 99 | 1006.0 |
| 20260506083418 | 52 | 22 | 2.0 | 5.0 | 0.14 | 1.02 | 1.02 | 99 | 1006.1 |
| 20260506083240 | 52 | 270 | 2.0 | 5.0 | 0.14 | 1.01 | 1.01 | 99 | 1006.0 |
| 20260506083058 | 52 | 0 | 2.0 | 5.0 | 0.14 | 1.01 | 1.01 | 99 | 1006.1 |
| 20260506082904 | 52 | 22 | 2.0 | 6.0 | 0.14 | 1.01 | 1.01 | 99 | 1006.1 |
| 20260506082715 | 52 | 22 | 1.0 | 5.0 | 0.17 | 1.01 | 1.01 | 99 | 1006.0 |
| 20260506082519 | 52 | 22 | 1.0 | 5.0 | 0.17 | 1.01 | 1.01 | 99 | 1006.0 |
| 20260506082325 | 52 | 22 | 1.0 | 0.0 | 0.17 | 1.01 | 1.01 | 99 | 1006.0 |
| 20260506082140 | 51 | 22 | 1.0 | 4.0 | 0.17 | 0.99 | 0.99 | 99 | 1006.0 |
| 20260506082031 | 51 | 22 | 1.0 | 4.0 | 0.17 | 0.99 | 0.99 | 99 | 1006.0 |
| 20260506081950 | 51 | 22 | 2.0 | 4.0 | 0.17 | 0.99 | 0.99 | 99 | 1005.9 |
| 20260506081755 | 51 | 22 | 2.0 | 5.0 | 0.17 | 0.99 | 0.99 | 99 | 1006.0 |
| 20260506081615 | 51 | 22 | 2.0 | 5.0 | 0.19 | 0.98 | 0.98 | 99 | 1005.9 |
| 20260506081430 | 51 | 22 | 2.0 | 5.0 | 0.19 | 0.98 | 0.98 | 99 | 1006.0 |
| 20260506081235 | 51 | 68 | 2.0 | 5.0 | 0.19 | 0.98 | 0.98 | 99 | 1006.0 |
| 20260506081100 | 51 | 68 | 2.0 | 5.0 | 0.24 | 0.98 | 0.98 | 99 | 1006.0 |
| 20260506080910 | 51 | 315 | 2.0 | 4.0 | 0.24 | 0.98 | 0.98 | 99 | 1006.0 |
| 20260506080715 | 51 | 225 | 2.0 | 5.0 | 0.24 | 0.98 | 0.98 | 99 | 1006.0 |
| 20260506080535 | 51 | 45 | 3.0 | 6.0 | 0.24 | 0.96 | 0.96 | 99 | 1005.9 |
| 20260506080350 | 51 | 45 | 3.0 | 6.0 | 0.24 | 0.96 | 0.96 | 99 | 1006.0 |
| 20260506080315 | 51 | 68 | 3.0 | 6.0 | 0.24 | 0.96 | 0.96 | 99 | 1005.9 |
| 20260506080150 | 51 | 22 | 3.0 | 7.0 | 0.24 | 0.96 | 0.96 | 99 | 1005.9 |
| 20260506073427 | 51 | 22 | 3.0 | 8.0 | 0.31 | 0.88 | 0.88 | 99 | 1005.7 |
| 20260506073250 | 51 | 0 | 3.0 | 8.0 | 0.31 | 0.88 | 0.88 | 99 | 1005.7 |
| 20260506073110 | 51 | 22 | 2.0 | 5.0 | 0.31 | 0.88 | 0.88 | 99 | 1005.8 |
| 20260506072920 | 51 | 45 | 2.0 | 5.0 | 0.31 | 0.87 | 0.87 | 99 | 1005.7 |
| 20260506072725 | 51 | 90 | 2.0 | 5.0 | 0.31 | 0.87 | 0.87 | 99 | 1005.8 |
| 20260506072707 | 51 | 90 | 2.0 | 5.0 | 0.31 | 0.87 | 0.87 | 99 | 1005.8 |
| 20260506072545 | 51 | 22 | 2.0 | 5.0 | 0.31 | 0.87 | 0.87 | 99 | 1005.8 |
| 20260506072400 | 51 | 22 | 2.0 | 5.0 | 0.33 | 0.83 | 0.83 | 99 | 1005.8 |
| 20260506072213 | 51 | 292 | 2.0 | 5.0 | 0.33 | 0.83 | 0.83 | 99 | 1005.7 |
| 20260506072015 | 51 | 338 | 1.0 | 5.0 | 0.33 | 0.83 | 0.83 | 99 | 1005.8 |
| 20260506071820 | 51 | 22 | 1.0 | 5.0 | 0.33 | 0.82 | 0.82 | 99 | 1005.8 |
| 20260506071630 | 51 | 22 | 1.0 | 5.0 | 0.33 | 0.82 | 0.82 | 99 | 1005.8 |
| 20260506071428 | 51 | 22 | 1.0 | 4.0 | 0.33 | 0.82 | 0.82 | 99 | 1005.8 |
| 20260506071238 | 51 | 22 | 1.0 | 4.0 | 0.30 | 0.79 | 0.79 | 99 | 1005.8 |
| 20260506071055 | 51 | 22 | 0.0 | 2.0 | 0.30 | 0.79 | 0.79 | 99 | 1005.7 |
| 20260506070859 | 51 | 22 | 1.0 | 2.0 | 0.30 | 0.79 | 0.79 | 99 | 1005.7 |
| 20260506070707 | 51 | 22 | 1.0 | 2.0 | 0.27 | 0.74 | 0.74 | 99 | 1005.7 |
| 20260506070510 | 51 | 22 | 1.0 | 5.0 | 0.27 | 0.74 | 0.74 | 99 | 1005.7 |
| 20260506070315 | 51 | 0 | 1.0 | 5.0 | 0.25 | 0.72 | 0.72 | 99 | 1005.7 |
| 20260506070125 | 51 | 45 | 1.0 | 5.0 | 0.25 | 0.72 | 0.72 | 99 | 1005.7 |
| 20260506062348 | 51 | 22 | 2.0 | 7.0 | 0.09 | 0.55 | 0.55 | 99 | 1005.4 |
| 20260506062200 | 51 | 22 | 1.0 | 6.0 | 0.09 | 0.55 | 0.55 | 99 | 1005.4 |
| 20260506062015 | 51 | 22 | 1.0 | 3.0 | 0.05 | 0.50 | 0.50 | 99 | 1005.4 |
| 20260506061922 | 51 | 22 | 1.0 | 3.0 | 0.05 | 0.50 | 0.50 | 99 | 1005.5 |
| 20260506061835 | 51 | 22 | 1.0 | 3.0 | 0.05 | 0.50 | 0.50 | 99 | 1005.5 |
| 20260506061658 | 51 | 68 | 1.0 | 2.0 | 0.05 | 0.50 | 0.50 | 99 | 1005.4 |
| 20260506061513 | 51 | 45 | 1.0 | 5.0 | 0.03 | 0.49 | 0.49 | 99 | 1005.5 |
| 20260506061335 | 51 | 45 | 1.0 | 5.0 | 0.03 | 0.49 | 0.49 | 99 | 1005.4 |
| 20260506061155 | 51 | 45 | 1.0 | 5.0 | 0.03 | 0.49 | 0.49 | 99 | 1005.4 |
| 20260506061000 | 51 | 22 | 1.0 | 3.0 | 0.03 | 0.49 | 0.49 | 99 | 1005.4 |
| 20260506060825 | 51 | 22 | 1.0 | 3.0 | 0.03 | 0.49 | 0.49 | 99 | 1005.4 |
| 20260506060625 | 51 | 45 | 1.0 | 3.0 | 0.03 | 0.49 | 0.49 | 99 | 1005.4 |
| 20260506060445 | 51 | 45 | 1.0 | 2.0 | 0.03 | 0.47 | 0.47 | 99 | 1005.4 |
| 20260506060300 | 51 | 45 | 1.0 | 6.0 | 0.03 | 0.47 | 0.47 | 99 | 1005.3 |
| 20260506060118 | 51 | 22 | 2.0 | 6.0 | 0.03 | 0.47 | 0.47 | 99 | 1005.2 |
| 20260506051355 | 51 | 45 | 3.0 | 8.0 | 0.05 | 0.46 | 0.46 | 99 | 1005.5 |
| 20260506051208 | 51 | 0 | 2.0 | 8.0 | 0.05 | 0.46 | 0.46 | 99 | 1005.5 |
| 20260506051015 | 51 | 45 | 2.0 | 8.0 | 0.05 | 0.46 | 0.46 | 99 | 1005.6 |
| 20260506050815 | 51 | 45 | 2.0 | 4.0 | 0.05 | 0.46 | 0.46 | 99 | 1005.6 |
| 20260506050618 | 51 | 45 | 2.0 | 5.0 | 0.06 | 0.46 | 0.46 | 99 | 1005.5 |
| 20260506050427 | 51 | 0 | 2.0 | 4.0 | 0.06 | 0.46 | 0.46 | 99 | 1005.6 |
| 20260506050412 | 51 | 0 | 2.0 | 4.0 | 0.06 | 0.46 | 0.46 | 99 | 1005.6 |
| 20260506050235 | 51 | 45 | 2.0 | 4.0 | 0.06 | 0.46 | 0.46 | 99 | 1005.6 |
| 20260506045005 | 51 | 45 | 3.0 | 6.0 | 0.06 | 0.44 | 0.44 | 99 | 1005.6 |
| 20260506044815 | 51 | 22 | 4.0 | 6.0 | 0.06 | 0.44 | 0.44 | 99 | 1005.6 |
| 20260506044625 | 51 | 22 | 4.0 | 7.0 | 0.06 | 0.44 | 0.44 | 99 | 1005.7 |
| 20260506044435 | 51 | 45 | 4.0 | 8.0 | 0.06 | 0.44 | 0.44 | 99 | 1005.6 |
| 20260506044246 | 51 | 45 | 4.0 | 8.0 | 0.06 | 0.44 | 0.44 | 99 | 1005.6 |
| 20260506044050 | 51 | 22 | 4.0 | 8.0 | 0.06 | 0.44 | 0.44 | 99 | 1005.6 |
| 20260506043905 | 51 | 22 | 4.0 | 8.0 | 0.06 | 0.44 | 0.44 | 99 | 1005.6 |
| 20260506043715 | 51 | 338 | 4.0 | 5.0 | 0.08 | 0.44 | 0.44 | 99 | 1005.7 |
| 20260506043530 | 51 | 22 | 3.0 | 5.0 | 0.08 | 0.44 | 0.44 | 99 | 1005.6 |
| 20260506043353 | 51 | 68 | 3.0 | 5.0 | 0.08 | 0.44 | 0.44 | 99 | 1005.7 |
| 20260506043155 | 51 | 45 | 3.0 | 8.0 | 0.06 | 0.43 | 0.43 | 99 | 1005.7 |
| 20260506042938 | 51 | 22 | 3.0 | 8.0 | 0.06 | 0.43 | 0.43 | 99 | 1005.7 |
| 20260506042808 | 51 | 45 | 3.0 | 7.0 | 0.06 | 0.43 | 0.43 | 99 | 1005.7 |
| 20260506042630 | 51 | 22 | 3.0 | 7.0 | 0.08 | 0.43 | 0.43 | 99 | 1005.8 |
| 20260506042446 | 51 | 22 | 3.0 | 6.0 | 0.08 | 0.43 | 0.43 | 99 | 1005.7 |
| 20260506042310 | 51 | 45 | 3.0 | 7.0 | 0.08 | 0.43 | 0.43 | 99 | 1005.7 |
| 20260506042119 | 51 | 270 | 4.0 | 7.0 | 0.08 | 0.43 | 0.43 | 99 | 1005.8 |
| 20260506041930 | 51 | 22 | 4.0 | 8.0 | 0.08 | 0.41 | 0.41 | 99 | 1005.8 |
| 20260506041732 | 51 | 22 | 2.0 | 8.0 | 0.08 | 0.41 | 0.41 | 99 | 1005.8 |
| 20260506041554 | 51 | 45 | 2.0 | 8.0 | 0.08 | 0.41 | 0.41 | 99 | 1005.8 |
| 20260506041400 | 51 | 45 | 2.0 | 5.0 | 0.09 | 0.41 | 0.41 | 99 | 1005.9 |
| 20260506041217 | 51 | 45 | 2.0 | 5.0 | 0.09 | 0.41 | 0.41 | 99 | 1005.9 |
| 20260506041210 | 51 | 22 | 2.0 | 5.0 | 0.09 | 0.41 | 0.41 | 99 | 1005.9 |
| 20260506041025 | 51 | 22 | 2.0 | 5.0 | 0.09 | 0.41 | 0.41 | 99 | 1005.9 |
| 20260506040848 | 51 | 68 | 2.0 | 8.0 | 0.11 | 0.41 | 0.41 | 99 | 1005.8 |
| 20260506040710 | 51 | 68 | 2.0 | 8.0 | 0.11 | 0.41 | 0.41 | 99 | 1005.9 |
| 20260506040515 | 51 | 22 | 3.0 | 8.0 | 0.11 | 0.41 | 0.41 | 99 | 1005.9 |
| 20260506040315 | 51 | 45 | 2.0 | 6.0 | 0.13 | 0.41 | 0.41 | 99 | 1005.9 |
| 20260506040125 | 51 | 45 | 2.0 | 6.0 | 0.13 | 0.41 | 0.41 | 99 | 1005.9 |
| 20260506035930 | 51 | 45 | 2.0 | 6.0 | 0.13 | 0.41 | 0.41 | 99 | 1005.9 |
| 20260506035741 | 51 | 45 | 2.0 | 5.0 | 0.13 | 0.39 | 0.39 | 99 | 1006.0 |
| 20260506035600 | 51 | 45 | 2.0 | 5.0 | 0.13 | 0.39 | 0.39 | 99 | 1006.0 |
| 20260506035400 | 51 | 22 | 2.0 | 5.0 | 0.13 | 0.39 | 0.39 | 99 | 1006.0 |
| 20260506035200 | 51 | 22 | 2.0 | 5.0 | 0.14 | 0.39 | 0.39 | 99 | 1006.0 |
| 20260506035022 | 51 | 22 | 2.0 | 5.0 | 0.14 | 0.39 | 0.39 | 99 | 1006.0 |
| 20260506034845 | 51 | 248 | 2.0 | 5.0 | 0.14 | 0.39 | 0.39 | 99 | 1006.1 |
| 20260506034705 | 51 | 68 | 2.0 | 5.0 | 0.14 | 0.38 | 0.38 | 99 | 1006.0 |
| 20260506034512 | 51 | 22 | 2.0 | 5.0 | 0.14 | 0.38 | 0.38 | 99 | 1006.1 |
| 20260506034337 | 51 | 45 | 2.0 | 4.0 | 0.14 | 0.38 | 0.38 | 99 | 1006.1 |
| 20260506034140 | 51 | 45 | 2.0 | 5.0 | 0.16 | 0.38 | 0.38 | 99 | 1006.0 |
| 20260506034000 | 51 | 45 | 2.0 | 5.0 | 0.16 | 0.38 | 0.38 | 99 | 1006.1 |
| 20260506033805 | 51 | 22 | 2.0 | 6.0 | 0.16 | 0.38 | 0.38 | 99 | 1006.1 |
| 20260506033755 | 51 | 45 | 2.0 | 6.0 | 0.16 | 0.38 | 0.38 | 99 | 1006.1 |
| 20260506033625 | 51 | 68 | 2.0 | 6.0 | 0.16 | 0.38 | 0.38 | 99 | 1006.1 |
| 20260506033445 | 51 | 45 | 2.0 | 6.0 | 0.17 | 0.38 | 0.38 | 99 | 1006.1 |
| 20260506033310 | 51 | 292 | 2.0 | 5.0 | 0.17 | 0.38 | 0.38 | 99 | 1006.0 |
| 20260506033121 | 51 | 292 | 2.0 | 6.0 | 0.17 | 0.38 | 0.38 | 99 | 1006.1 |
| 20260506032944 | 51 | 292 | 2.0 | 6.0 | 0.17 | 0.36 | 0.36 | 99 | 1006.1 |
| 20260506032800 | 51 | 22 | 2.0 | 6.0 | 0.17 | 0.36 | 0.36 | 99 | 1006.1 |
| 20260506032600 | 51 | 45 | 2.0 | 5.0 | 0.17 | 0.36 | 0.36 | 99 | 1006.1 |
| 20260506032400 | 51 | 0 | 2.0 | 5.0 | 0.19 | 0.36 | 0.36 | 99 | 1006.1 |
| 20260506032217 | 51 | 45 | 2.0 | 5.0 | 0.19 | 0.36 | 0.36 | 99 | 1006.1 |
| 20260506032205 | 51 | 45 | 2.0 | 5.0 | 0.19 | 0.36 | 0.36 | 99 | 1006.1 |
| 20260506032025 | 51 | 68 | 2.0 | 5.0 | 0.19 | 0.36 | 0.36 | 99 | 1006.1 |
| 20260506031840 | 51 | 45 | 2.0 | 5.0 | 0.19 | 0.35 | 0.35 | 99 | 1006.2 |
| 20260506031702 | 51 | 45 | 2.0 | 5.0 | 0.19 | 0.35 | 0.35 | 99 | 1006.2 |
| 20260506031522 | 51 | 22 | 2.0 | 5.0 | 0.19 | 0.35 | 0.35 | 99 | 1006.2 |
| 20260506031345 | 51 | 45 | 1.0 | 5.0 | 0.19 | 0.33 | 0.33 | 99 | 1006.3 |
| 20260506031149 | 51 | 45 | 2.0 | 5.0 | 0.19 | 0.33 | 0.33 | 99 | 1006.3 |
| 20260506031010 | 51 | 45 | 2.0 | 5.0 | 0.19 | 0.33 | 0.33 | 99 | 1006.3 |
| 20260506030811 | 51 | 22 | 2.0 | 5.0 | 0.19 | 0.31 | 0.31 | 99 | 1006.3 |
| 20260506030647 | 51 | 22 | 2.0 | 7.0 | 0.19 | 0.31 | 0.31 | 99 | 1006.4 |
| 20260506030613 | 51 | 22 | 3.0 | 7.0 | 0.19 | 0.31 | 0.31 | 98 | 1006.4 |
| 20260506030430 | 51 | 22 | 3.0 | 7.0 | 0.19 | 0.31 | 0.31 | 98 | 1006.3 |
| 20260506030232 | 51 | 68 | 2.0 | 7.0 | 0.19 | 0.30 | 0.30 | 98 | 1006.4 |
| 20260506030035 | 51 | 45 | 2.0 | 6.0 | 0.19 | 0.30 | 0.30 | 98 | 1006.4 |
| 20260506025850 | 51 | 45 | 2.0 | 6.0 | 0.19 | 0.30 | 0.30 | 98 | 1006.4 |
| 20260506025700 | 51 | 22 | 2.0 | 6.0 | 0.17 | 0.28 | 0.28 | 98 | 1006.5 |
| 20260506025515 | 51 | 22 | 2.0 | 6.0 | 0.17 | 0.28 | 0.28 | 98 | 1006.4 |
| 20260506025322 | 51 | 22 | 2.0 | 6.0 | 0.16 | 0.27 | 0.27 | 98 | 1006.5 |
| 20260506025122 | 51 | 22 | 1.0 | 5.0 | 0.16 | 0.27 | 0.27 | 98 | 1006.6 |
| 20260506024957 | 51 | 68 | 1.0 | 5.0 | 0.16 | 0.27 | 0.27 | 98 | 1006.6 |
| 20260506024930 | 51 | 68 | 1.0 | 5.0 | 0.16 | 0.27 | 0.27 | 98 | 1006.6 |
| 20260506024748 | 51 | 68 | 2.0 | 5.0 | 0.16 | 0.25 | 0.25 | 98 | 1006.5 |
| 20260506024548 | 51 | 0 | 2.0 | 3.0 | 0.16 | 0.25 | 0.25 | 98 | 1006.6 |
| 20260506024405 | 51 | 22 | 2.0 | 3.0 | 0.16 | 0.25 | 0.25 | 98 | 1006.6 |
| 20260506024210 | 51 | 45 | 1.0 | 5.0 | 0.16 | 0.24 | 0.24 | 98 | 1006.6 |
| 20260506024010 | 51 | 45 | 2.0 | 5.0 | 0.16 | 0.24 | 0.24 | 98 | 1006.7 |
| 20260506023825 | 51 | 45 | 2.0 | 5.0 | 0.16 | 0.24 | 0.24 | 98 | 1006.6 |
| 20260506023650 | 51 | 45 | 2.0 | 5.0 | 0.14 | 0.22 | 0.22 | 98 | 1006.6 |
| 20260506023515 | 51 | 22 | 2.0 | 4.0 | 0.14 | 0.22 | 0.22 | 98 | 1006.7 |
| 20260506023437 | 51 | 22 | 2.0 | 5.0 | 0.14 | 0.22 | 0.22 | 98 | 1006.7 |
| 20260506023322 | 51 | 22 | 2.0 | 5.0 | 0.14 | 0.22 | 0.22 | 98 | 1006.7 |
| 20260506023140 | 51 | 22 | 2.0 | 5.0 | 0.14 | 0.20 | 0.20 | 98 | 1006.8 |
| 20260506022940 | 51 | 0 | 1.0 | 5.0 | 0.14 | 0.20 | 0.20 | 98 | 1006.8 |
| 20260506022742 | 51 | 68 | 1.0 | 5.0 | 0.14 | 0.20 | 0.20 | 98 | 1006.8 |
| 20260506022545 | 51 | 22 | 2.0 | 5.0 | 0.13 | 0.19 | 0.19 | 98 | 1006.8 |
| 20260506022405 | 51 | 22 | 2.0 | 5.0 | 0.13 | 0.19 | 0.19 | 98 | 1006.8 |
| 20260506022210 | 51 | 0 | 2.0 | 3.0 | 0.13 | 0.19 | 0.19 | 98 | 1006.8 |
| 20260506022015 | 51 | 22 | 1.0 | 6.0 | 0.13 | 0.17 | 0.17 | 98 | 1006.9 |
| 20260506021811 | 51 | 22 | 2.0 | 6.0 | 0.13 | 0.17 | 0.17 | 98 | 1006.9 |
| 20260506021615 | 51 | 45 | 2.0 | 6.0 | 0.11 | 0.16 | 0.16 | 98 | 1006.8 |
| 20260506021440 | 51 | 45 | 2.0 | 2.0 | 0.11 | 0.16 | 0.16 | 98 | 1006.8 |
| 20260506021254 | 51 | 45 | 2.0 | 8.0 | 0.11 | 0.16 | 0.16 | 98 | 1006.8 |
| 20260506021100 | 51 | 45 | 2.0 | 8.0 | 0.09 | 0.14 | 0.14 | 98 | 1006.9 |
| 20260506020918 | 51 | 22 | 2.0 | 8.0 | 0.09 | 0.14 | 0.14 | 98 | 1006.9 |
| 20260506020742 | 51 | 0 | 3.0 | 8.0 | 0.09 | 0.14 | 0.14 | 98 | 1006.9 |
| 20260506020548 | 51 | 68 | 2.0 | 6.0 | 0.09 | 0.13 | 0.13 | 98 | 1006.9 |
| 20260506020410 | 51 | 45 | 2.0 | 5.0 | 0.09 | 0.13 | 0.13 | 98 | 1006.9 |
| 20260506020230 | 51 | 338 | 1.0 | 6.0 | 0.09 | 0.13 | 0.13 | 98 | 1006.9 |
| 20260506020033 | 51 | 22 | 2.0 | 6.0 | 0.08 | 0.11 | 0.11 | 98 | 1006.9 |
| 20260506015917 | 51 | 22 | 2.0 | 6.0 | 0.08 | 0.11 | 0.11 | 98 | 1006.9 |
| 20260506015854 | 51 | 22 | 2.0 | 6.0 | 0.08 | 0.11 | 0.11 | 98 | 1006.9 |
| 20260506015710 | 51 | 45 | 2.0 | 8.0 | 0.08 | 0.11 | 0.11 | 98 | 1006.9 |
| 20260506015510 | 51 | 45 | 3.0 | 8.0 | 0.08 | 0.11 | 0.11 | 98 | 1006.9 |
| 20260506015318 | 51 | 45 | 3.0 | 8.0 | 0.08 | 0.11 | 0.11 | 98 | 1006.9 |
| 20260506015120 | 51 | 22 | 2.0 | 6.0 | 0.08 | 0.11 | 0.11 | 98 | 1006.9 |
| 20260506014935 | 51 | 45 | 2.0 | 5.0 | 0.08 | 0.11 | 0.11 | 98 | 1006.9 |
| 20260506014742 | 51 | 45 | 2.0 | 5.0 | 0.08 | 0.11 | 0.11 | 98 | 1006.9 |
| 20260506014541 | 51 | 22 | 2.0 | 5.0 | 0.08 | 0.11 | 0.11 | 98 | 1006.9 |
| 20260506014405 | 51 | 45 | 2.0 | 4.0 | 0.06 | 0.09 | 0.09 | 98 | 1006.9 |
| 20260506014220 | 51 | 45 | 2.0 | 5.0 | 0.06 | 0.09 | 0.09 | 98 | 1006.9 |
| 20260506014148 | 51 | 45 | 2.0 | 5.0 | 0.06 | 0.09 | 0.09 | 98 | 1006.8 |
| 20260506014040 | 51 | 45 | 3.0 | 5.0 | 0.06 | 0.09 | 0.09 | 98 | 1006.9 |
| 20260506013853 | 51 | 22 | 3.0 | 5.0 | 0.06 | 0.08 | 0.08 | 98 | 1006.9 |
| 20260506013700 | 51 | 22 | 3.0 | 6.0 | 0.06 | 0.08 | 0.08 | 98 | 1006.9 |
| 20260506013500 | 51 | 22 | 4.0 | 7.0 | 0.06 | 0.08 | 0.08 | 98 | 1006.9 |
| 20260506013315 | 51 | 22 | 4.0 | 7.0 | 0.06 | 0.08 | 0.08 | 98 | 1006.9 |
| 20260506013134 | 52 | 22 | 5.0 | 7.0 | 0.06 | 0.08 | 0.08 | 98 | 1006.9 |
| 20260506012942 | 52 | 45 | 5.0 | 7.0 | 0.05 | 0.06 | 0.06 | 98 | 1006.8 |
| 20260506012745 | 52 | 22 | 5.0 | 9.0 | 0.05 | 0.06 | 0.06 | 98 | 1007.0 |
| 20260506012602 | 52 | 68 | 4.0 | 9.0 | 0.05 | 0.06 | 0.06 | 98 | 1006.9 |
| 20260506012526 | 52 | 22 | 4.0 | 9.0 | 0.05 | 0.06 | 0.06 | 98 | 1006.9 |
| 20260506012405 | 52 | 45 | 3.0 | 9.0 | 0.05 | 0.06 | 0.06 | 98 | 1007.0 |
| 20260506012210 | 52 | 45 | 3.0 | 9.0 | 0.05 | 0.06 | 0.06 | 98 | 1007.0 |
| 20260506012030 | 52 | 45 | 3.0 | 9.0 | 0.05 | 0.06 | 0.06 | 98 | 1007.0 |
| 20260506011852 | 52 | 315 | 2.0 | 7.0 | 0.03 | 0.05 | 0.05 | 98 | 1007.0 |
| 20260506011705 | 52 | 22 | 3.0 | 7.0 | 0.03 | 0.05 | 0.05 | 98 | 1007.1 |
| 20260506011505 | 52 | 22 | 3.0 | 7.0 | 0.03 | 0.05 | 0.05 | 98 | 1007.2 |
| 20260506011322 | 52 | 248 | 3.0 | 7.0 | 0.05 | 0.05 | 0.05 | 98 | 1007.0 |
| 20260506011145 | 52 | 45 | 3.0 | 6.0 | 0.05 | 0.05 | 0.05 | 98 | 1007.1 |
| 20260506010955 | 52 | 22 | 3.0 | 6.0 | 0.05 | 0.05 | 0.05 | 98 | 1007.1 |
| 20260506010818 | 52 | 68 | 3.0 | 6.0 | 0.05 | 0.05 | 0.05 | 98 | 1007.2 |
| 20260506010625 | 52 | 45 | 3.0 | 8.0 | 0.05 | 0.05 | 0.05 | 98 | 1007.2 |
| 20260506010445 | 52 | 45 | 3.0 | 8.0 | 0.05 | 0.05 | 0.05 | 98 | 1007.3 |
| 20260506010255 | 52 | 22 | 3.0 | 8.0 | 0.03 | 0.03 | 0.03 | 98 | 1007.2 |
| 20260506010055 | 52 | 90 | 3.0 | 8.0 | 0.03 | 0.03 | 0.03 | 98 | 1007.2 |
| 20260506005857 | 52 | 45 | 3.0 | 8.0 | 0.03 | 0.03 | 0.03 | 98 | 1007.3 |
| 20260506005710 | 52 | 22 | 4.0 | 8.0 | 0.03 | 0.03 | 0.03 | 98 | 1007.3 |
| 20260506005527 | 52 | 22 | 3.0 | 7.0 | 0.03 | 0.03 | 0.03 | 98 | 1007.3 |
| 20260506005348 | 52 | 22 | 2.0 | 7.0 | 0.03 | 0.03 | 0.03 | 98 | 1007.4 |
| 20260506005210 | 52 | 45 | 2.0 | 7.0 | 0.03 | 0.03 | 0.03 | 98 | 1007.4 |
| 20260506005136 | 52 | 338 | 2.0 | 7.0 | 0.03 | 0.03 | 0.03 | 98 | 1007.3 |
| 20260506005010 | 52 | 22 | 2.0 | 7.0 | 0.03 | 0.03 | 0.03 | 98 | 1007.3 |
| 20260506004811 | 52 | 90 | 2.0 | 7.0 | 0.03 | 0.03 | 0.03 | 98 | 1007.4 |
| 20260506004620 | 52 | 22 | 2.0 | 5.0 | 0.03 | 0.03 | 0.03 | 98 | 1007.4 |
| 20260506004435 | 52 | 45 | 2.0 | 5.0 | 0.03 | 0.03 | 0.03 | 98 | 1007.4 |
| 20260506004248 | 52 | 45 | 2.0 | 7.0 | 0.03 | 0.03 | 0.03 | 98 | 1007.5 |
| 20260506004105 | 52 | 22 | 2.0 | 7.0 | 0.03 | 0.03 | 0.03 | 98 | 1007.5 |
| 20260506003925 | 52 | 68 | 2.0 | 5.0 | 0.03 | 0.03 | 0.03 | 98 | 1007.6 |
| 20260506003735 | 52 | 68 | 2.0 | 6.0 | 0.03 | 0.03 | 0.03 | 97 | 1007.6 |
| 20260506003550 | 52 | 22 | 2.0 | 6.0 | 0.02 | 0.02 | 0.02 | 97 | 1007.5 |
| 20260506003357 | 52 | 22 | 2.0 | 6.0 | 0.02 | 0.02 | 0.02 | 97 | 1007.6 |
| 20260506003215 | 52 | 45 | 2.0 | 5.0 | 0.02 | 0.02 | 0.02 | 97 | 1007.6 |
| 20260506003030 | 52 | 45 | 2.0 | 5.0 | 0.02 | 0.02 | 0.02 | 97 | 1007.6 |
| 20260506002840 | 52 | 45 | 2.0 | 5.0 | 0.02 | 0.02 | 0.02 | 97 | 1007.6 |
| 20260506002655 | 52 | 338 | 2.0 | 5.0 | 0.02 | 0.02 | 0.02 | 97 | 1007.6 |
| 20260506002517 | 52 | 45 | 2.0 | 6.0 | 0.02 | 0.02 | 0.02 | 97 | 1007.7 |
| 20260506002322 | 52 | 45 | 2.0 | 6.0 | 0.02 | 0.02 | 0.02 | 97 | 1007.6 |
| 20260506002130 | 52 | 22 | 2.0 | 6.0 | 0.02 | 0.02 | 0.02 | 97 | 1007.6 |
| 20260506001937 | 53 | 22 | 2.0 | 5.0 | 0.02 | 0.02 | 0.02 | 97 | 1007.7 |
| 20260506001845 | 53 | 22 | 1.0 | 5.0 | 0.02 | 0.02 | 0.02 | 97 | 1007.7 |
| 20260506001748 | 53 | 22 | 1.0 | 5.0 | 0.02 | 0.02 | 0.02 | 97 | 1007.7 |
| 20260506001605 | 53 | 45 | 1.0 | 5.0 | 0.02 | 0.02 | 0.02 | 97 | 1007.7 |
| 20260506001417 | 53 | 45 | 1.0 | 5.0 | 0.02 | 0.02 | 0.02 | 97 | 1007.6 |
| 20260506001234 | 53 | 45 | 1.0 | 5.0 | 0.02 | 0.02 | 0.02 | 97 | 1007.7 |
| 20260506001057 | 53 | 22 | 1.0 | 4.0 | 0.00 | 0.00 | 0.00 | 97 | 1007.8 |
| 20260506000910 | 53 | 45 | 2.0 | 4.0 | 0.00 | 0.00 | 0.00 | 97 | 1007.8 |
| 20260506000720 | 53 | 22 | 2.0 | 5.0 | 0.00 | 0.00 | 0.00 | 97 | 1007.9 |
| 20260506000535 | 53 | 45 | 2.0 | 6.0 | 0.00 | 0.00 | 0.00 | 97 | 1007.9 |
| 20260506000335 | 53 | 45 | 2.0 | 6.0 | 0.00 | 0.00 | 0.00 | 97 | 1007.9 |
| 20260506000304 | 53 | 45 | 2.0 | 6.0 | 0.00 | 0.00 | 0.00 | 97 | 1007.9 |
| 20260506000148 | 53 | 45 | 2.0 | 6.0 | 0.00 | 0.00 | 0.00 | 97 | 1007.9 |
| 20260505235950 | 53 | 45 | 2.0 | 5.0 | 0.00 | 0.00 | 0.00 | 97 | 1007.9 |
| 20260505235810 | 53 | 45 | 3.0 | 5.0 | 0.00 | 0.00 | 0.00 | 97 | 1007.9 |
| 20260505235620 | 53 | 45 | 3.0 | 6.0 | 0.00 | 0.00 | 0.00 | 97 | 1007.9 |
| 20260505235425 | 53 | 22 | 3.0 | 6.0 | 0.00 | 0.00 | 0.00 | 97 | 1007.9 |
| 20260505235245 | 53 | 45 | 3.0 | 6.0 | 0.00 | 0.00 | 0.00 | 96 | 1007.9 |
| 20260505235050 | 53 | 68 | 2.0 | 5.0 | 0.00 | 0.00 | 0.00 | 96 | 1008.1 |
| 20260505234905 | 53 | 22 | 2.0 | 5.0 | 0.00 | 0.00 | 0.00 | 96 | 1008.0 |
| 20260505234720 | 53 | 22 | 2.0 | 5.0 | 0.00 | 0.00 | 0.00 | 96 | 1008.0 |
| 20260505234540 | 53 | 45 | 2.0 | 5.0 | 0.00 | 0.00 | 0.00 | 96 | 1008.1 |
| 20260505234442 | 53 | 45 | 2.0 | 5.0 | 0.00 | 0.00 | 0.00 | 96 | 1008.1 |
| 20260505234350 | 53 | 45 | 2.0 | 7.0 | 0.00 | 0.00 | 0.00 | 96 | 1008.1 |
| 20260505234205 | 53 | 45 | 2.0 | 7.0 | 0.00 | 0.00 | 0.00 | 96 | 1008.0 |
| 20260505234030 | 53 | 22 | 2.0 | 7.0 | 0.00 | 0.00 | 0.00 | 96 | 1008.1 |
| 20260505233853 | 53 | 90 | 2.0 | 7.0 | 0.00 | 0.00 | 0.00 | 96 | 1008.0 |
| 20260505233715 | 53 | 338 | 2.0 | 5.0 | 0.00 | 0.00 | 0.00 | 96 | 1008.0 |
| 20260505233535 | 53 | 292 | 2.0 | 5.0 | 0.00 | 0.00 | 0.00 | 96 | 1008.0 |
| 20260505233337 | 53 | 0 | 2.0 | 5.0 | 0.00 | 0.00 | 0.00 | 96 | 1008.0 |
| 20260505233145 | 53 | 45 | 2.0 | 5.0 | 0.00 | 0.00 | 0.00 | 96 | 1008.1 |
| 20260505233000 | 53 | 45 | 3.0 | 7.0 | 0.00 | 0.00 | 0.00 | 96 | 1008.0 |
| 20260505232810 | 53 | 45 | 3.0 | 7.0 | 0.00 | 0.00 | 0.00 | 96 | 1008.1 |
| 20260505232717 | 53 | 338 | 3.0 | 7.0 | 0.00 | 0.00 | 0.00 | 96 | 1008.1 |
| 20260505232620 | 53 | 45 | 3.0 | 7.0 | 0.00 | 0.00 | 0.00 | 95 | 1008.1 |
| 20260505232425 | 53 | 45 | 2.0 | 5.0 | 0.00 | 0.00 | 0.00 | 95 | 1008.1 |
| 20260505232230 | 54 | 68 | 3.0 | 5.0 | 0.00 | 0.00 | 0.00 | 95 | 1008.1 |
| 20260505232048 | 54 | 68 | 4.0 | 5.0 | 0.00 | 0.00 | 0.00 | 95 | 1008.1 |
| 20260505231848 | 54 | 22 | 4.0 | 5.0 | 0.00 | 0.00 | 0.00 | 95 | 1008.1 |
| 20260505231655 | 54 | 22 | 3.0 | 8.0 | 0.00 | 0.00 | 0.00 | 95 | 1008.1 |
| 20260505231455 | 54 | 22 | 4.0 | 8.0 | 0.00 | 0.00 | 0.00 | 95 | 1008.1 |
| 20260505231310 | 54 | 45 | 3.0 | 8.0 | 0.00 | 0.00 | 0.00 | 95 | 1008.2 |
| 20260505231110 | 54 | 0 | 2.0 | 7.0 | 0.00 | 0.00 | 0.00 | 95 | 1008.3 |
| 20260505231046 | 54 | 338 | 2.0 | 5.0 | 0.00 | 0.00 | 0.00 | 94 | 1008.2 |
| 20260505230915 | 54 | 68 | 2.0 | 5.0 | 0.00 | 0.00 | 0.00 | 94 | 1008.2 |
| 20260505230715 | 54 | 22 | 2.0 | 4.0 | 0.00 | 0.00 | 0.00 | 94 | 1008.2 |
| 20260505230525 | 54 | 22 | 2.0 | 7.0 | 0.00 | 0.00 | 0.00 | 94 | 1008.2 |
| 20260505230325 | 54 | 90 | 1.0 | 2.0 | 0.00 | 0.00 | 0.00 | 94 | 1008.1 |
| 20260505230130 | 54 | 112 | 1.0 | 3.0 | 0.00 | 0.00 | 0.00 | 94 | 1008.2 |
| 20260505225934 | 54 | 22 | 1.0 | 3.0 | 0.00 | 0.00 | 0.00 | 93 | 1008.3 |
| 20260505225737 | 54 | 22 | 2.0 | 6.0 | 0.00 | 0.00 | 0.00 | 93 | 1008.2 |
| 20260505225557 | 54 | 22 | 2.0 | 6.0 | 0.00 | 0.00 | 0.00 | 93 | 1008.2 |
| 20260505225410 | 54 | 22 | 3.0 | 6.0 | 0.00 | 0.00 | 0.00 | 93 | 1008.3 |
| 20260505225317 | 54 | 22 | 3.0 | 7.0 | 0.00 | 0.00 | 0.00 | 93 | 1008.3 |
| 20260505225231 | 54 | 45 | 3.0 | 7.0 | 0.00 | 0.00 | 0.00 | 93 | 1008.2 |
| 20260505225053 | 54 | 45 | 4.0 | 8.0 | 0.00 | 0.00 | 0.00 | 93 | 1008.3 |
| 20260505224910 | 54 | 45 | 4.0 | 9.0 | 0.00 | 0.00 | 0.00 | 93 | 1008.3 |
| 20260505224715 | 54 | 45 | 4.0 | 9.0 | 0.00 | 0.00 | 0.00 | 92 | 1008.3 |
| 20260505224535 | 54 | 0 | 3.0 | 9.0 | 0.00 | 0.00 | 0.00 | 92 | 1008.3 |
| 20260505224337 | 54 | 22 | 3.0 | 7.0 | 0.00 | 0.00 | 0.00 | 92 | 1008.3 |
| 20260505224155 | 54 | 45 | 3.0 | 7.0 | 0.00 | 0.00 | 0.00 | 92 | 1008.4 |
| 20260505224015 | 54 | 22 | 2.0 | 5.0 | 0.00 | 0.00 | 0.00 | 92 | 1008.3 |
| 20260505223817 | 54 | 68 | 2.0 | 5.0 | 0.00 | 0.00 | 0.00 | 92 | 1008.3 |
| 20260505223655 | 54 | 45 | 2.0 | 4.0 | 0.00 | 0.00 | 0.00 | 92 | 1008.3 |
| 20260505223635 | 54 | 68 | 2.0 | 4.0 | 0.00 | 0.00 | 0.00 | 92 | 1008.4 |
| 20260505223457 | 54 | 68 | 3.0 | 5.0 | 0.00 | 0.00 | 0.00 | 92 | 1008.4 |
| 20260505223305 | 54 | 338 | 2.0 | 5.0 | 0.00 | 0.00 | 0.00 | 92 | 1008.5 |
| 20260505223115 | 54 | 315 | 2.0 | 6.0 | 0.00 | 0.00 | 0.00 | 92 | 1008.5 |
| 20260505222937 | 54 | 68 | 2.0 | 6.0 | 0.00 | 0.00 | 0.00 | 92 | 1008.5 |
| 20260505222739 | 54 | 22 | 2.0 | 6.0 | 0.00 | 0.00 | 0.00 | 92 | 1008.4 |
| 20260505222548 | 54 | 90 | 2.0 | 5.0 | 0.00 | 0.00 | 0.00 | 92 | 1008.5 |
| 20260505222355 | 54 | 22 | 2.0 | 5.0 | 0.00 | 0.00 | 0.00 | 92 | 1008.5 |
| 20260505222215 | 54 | 22 | 2.0 | 5.0 | 0.00 | 0.00 | 0.00 | 92 | 1008.5 |
| 20260505222015 | 54 | 68 | 2.0 | 4.0 | 0.00 | 0.00 | 0.00 | 92 | 1008.4 |
| 20260505221855 | 54 | 68 | 2.0 | 5.0 | 0.00 | 0.00 | 0.00 | 92 | 1008.4 |
| 20260505221817 | 54 | 68 | 2.0 | 5.0 | 0.00 | 0.00 | 0.00 | 92 | 1008.5 |
| 20260505221625 | 54 | 68 | 3.0 | 5.0 | 0.00 | 0.00 | 0.00 | 92 | 1008.4 |
| 20260505221425 | 54 | 45 | 3.0 | 5.0 | 0.00 | 0.00 | 0.00 | 92 | 1008.5 |
| 20260505221245 | 54 | 22 | 3.0 | 6.0 | 0.00 | 0.00 | 0.00 | 92 | 1008.5 |
| 20260505221053 | 54 | 90 | 3.0 | 5.0 | 0.00 | 0.00 | 0.00 | 92 | 1008.5 |
| 20260505220904 | 54 | 45 | 4.0 | 7.0 | 0.00 | 0.00 | 0.00 | 92 | 1008.5 |
| 20260505220717 | 54 | 45 | 4.0 | 7.0 | 0.00 | 0.00 | 0.00 | 92 | 1008.5 |
| 20260505220520 | 54 | 45 | 4.0 | 6.0 | 0.00 | 0.00 | 0.00 | 92 | 1008.5 |
| 20260505220330 | 54 | 0 | 3.0 | 9.0 | 0.00 | 0.00 | 0.00 | 92 | 1008.4 |
| 20260505220137 | 54 | 68 | 3.0 | 9.0 | 0.00 | 0.00 | 0.00 | 92 | 1008.4 |
| 20260505220112 | 54 | 68 | 3.0 | 9.0 | 0.00 | 0.00 | 0.00 | 92 | 1008.3 |
| 20260505215944 | 54 | 22 | 3.0 | 7.0 | 0.00 | 0.00 | 0.00 | 92 | 1008.4 |
| 20260505215748 | 54 | 270 | 3.0 | 7.0 | 0.00 | 0.00 | 0.00 | 92 | 1008.4 |
| 20260505215600 | 54 | 45 | 3.0 | 7.0 | 0.00 | 0.00 | 0.00 | 92 | 1008.4 |
| 20260505215410 | 54 | 45 | 3.0 | 9.0 | 0.00 | 0.00 | 0.00 | 92 | 1008.4 |
| 20260505215217 | 54 | 45 | 3.0 | 9.0 | 0.00 | 0.00 | 0.00 | 92 | 1008.5 |
| 20260505215034 | 54 | 135 | 4.0 | 9.0 | 0.00 | 0.00 | 0.00 | 92 | 1008.5 |
| 20260505214837 | 55 | 338 | 4.0 | 8.0 | 0.00 | 0.00 | 0.00 | 92 | 1008.5 |
| 20260505214700 | 55 | 45 | 3.0 | 8.0 | 0.00 | 0.00 | 0.00 | 92 | 1008.5 |
| 20260505214515 | 55 | 68 | 3.0 | 6.0 | 0.00 | 0.00 | 0.00 | 92 | 1008.5 |
| 20260505214325 | 55 | 22 | 3.0 | 6.0 | 0.00 | 0.00 | 0.00 | 92 | 1008.5 |
| 20260505214236 | 55 | 68 | 3.0 | 6.0 | 0.00 | 0.00 | 0.00 | 92 | 1008.5 |
| 20260505214135 | 55 | 68 | 3.0 | 6.0 | 0.00 | 0.00 | 0.00 | 92 | 1008.4 |
| 20260505213944 | 55 | 45 | 3.0 | 6.0 | 0.00 | 0.00 | 0.00 | 92 | 1008.5 |
| 20260505213745 | 55 | 45 | 3.0 | 6.0 | 0.00 | 0.00 | 0.00 | 92 | 1008.5 |
| 20260505213549 | 55 | 22 | 3.0 | 7.0 | 0.00 | 0.00 | 0.00 | 92 | 1008.4 |
| 20260505213410 | 55 | 45 | 4.0 | 7.0 | 0.00 | 0.00 | 0.00 | 92 | 1008.4 |
| 20260505213210 | 55 | 45 | 4.0 | 8.0 | 0.00 | 0.00 | 0.00 | 92 | 1008.5 |
| 20260505213025 | 55 | 22 | 3.0 | 8.0 | 0.00 | 0.00 | 0.00 | 92 | 1008.4 |
| 20260505212837 | 55 | 22 | 3.0 | 8.0 | 0.00 | 0.00 | 0.00 | 92 | 1008.5 |
| 20260505212645 | 55 | 45 | 3.0 | 7.0 | 0.00 | 0.00 | 0.00 | 92 | 1008.5 |
| 20260505212452 | 55 | 68 | 3.0 | 6.0 | 0.00 | 0.00 | 0.00 | 92 | 1008.5 |
| 20260505212404 | 55 | 22 | 3.0 | 6.0 | 0.00 | 0.00 | 0.00 | 92 | 1008.6 |
| 20260505212300 | 55 | 68 | 3.0 | 7.0 | 0.00 | 0.00 | 0.00 | 92 | 1008.6 |
| 20260505212122 | 55 | 90 | 4.0 | 7.0 | 0.00 | 0.00 | 0.00 | 92 | 1008.6 |
| 20260505211934 | 55 | 22 | 3.0 | 7.0 | 0.00 | 0.00 | 0.00 | 92 | 1008.6 |
| 20260505211740 | 55 | 68 | 3.0 | 7.0 | 0.00 | 0.00 | 0.00 | 92 | 1008.6 |
| 20260505211603 | 55 | 315 | 3.0 | 8.0 | 0.00 | 0.00 | 0.00 | 92 | 1008.5 |
| 20260505211425 | 55 | 45 | 3.0 | 8.0 | 0.00 | 0.00 | 0.00 | 92 | 1008.7 |
| 20260505211249 | 55 | 22 | 2.0 | 8.0 | 0.00 | 0.00 | 0.00 | 92 | 1008.8 |
| 20260505211112 | 55 | 45 | 2.0 | 6.0 | 0.00 | 0.00 | 0.00 | 92 | 1008.7 |
| 20260505210919 | 55 | 45 | 2.0 | 6.0 | 0.00 | 0.00 | 0.00 | 92 | 1008.7 |
| 20260505210841 | 55 | 45 | 2.0 | 6.0 | 0.00 | 0.00 | 0.00 | 92 | 1008.7 |
| 20260505210735 | 55 | 45 | 2.0 | 6.0 | 0.00 | 0.00 | 0.00 | 92 | 1008.7 |
| 20260505210545 | 55 | 112 | 2.0 | 4.0 | 0.00 | 0.00 | 0.00 | 92 | 1008.8 |
| 20260505210357 | 55 | 22 | 3.0 | 5.0 | 0.00 | 0.00 | 0.00 | 92 | 1008.8 |
| 20260505210215 | 55 | 22 | 3.0 | 6.0 | 0.00 | 0.00 | 0.00 | 92 | 1008.7 |
| 20260505210025 | 56 | 22 | 4.0 | 9.0 | 0.00 | 0.00 | 0.00 | 92 | 1008.7 |
| 20260505205839 | 56 | 22 | 4.0 | 9.0 | 0.00 | 0.00 | 0.00 | 92 | 1008.7 |
| 20260505205652 | 56 | 22 | 5.0 | 9.0 | 0.00 | 0.00 | 0.00 | 92 | 1008.6 |
| 20260505205505 | 56 | 270 | 4.0 | 9.0 | 0.00 | 0.00 | 0.00 | 92 | 1008.7 |
| 20260505205305 | 56 | 22 | 4.0 | 7.0 | 0.00 | 0.00 | 0.00 | 92 | 1008.7 |
| 20260505205130 | 56 | 22 | 4.0 | 7.0 | 0.00 | 0.00 | 0.00 | 92 | 1008.8 |
| 20260505204938 | 56 | 45 | 4.0 | 7.0 | 0.00 | 0.00 | 0.00 | 92 | 1008.8 |
| 20260505204738 | 56 | 22 | 3.0 | 6.0 | 0.00 | 0.00 | 0.00 | 92 | 1008.8 |
| 20260505204545 | 56 | 45 | 3.0 | 5.0 | 0.00 | 0.00 | 0.00 | 92 | 1008.8 |
| 20260505204345 | 56 | 22 | 3.0 | 5.0 | 0.00 | 0.00 | 0.00 | 92 | 1008.8 |
| 20260505204147 | 56 | 45 | 3.0 | 5.0 | 0.00 | 0.00 | 0.00 | 92 | 1008.8 |
| 20260505203950 | 56 | 68 | 2.0 | 8.0 | 0.00 | 0.00 | 0.00 | 91 | 1008.7 |
| 20260505203748 | 56 | 45 | 3.0 | 8.0 | 0.00 | 0.00 | 0.00 | 92 | 1008.8 |
| 20260505203601 | 56 | 45 | 3.0 | 8.0 | 0.00 | 0.00 | 0.00 | 91 | 1008.7 |
| 20260505203547 | 56 | 0 | 3.0 | 6.0 | 0.00 | 0.00 | 0.00 | 91 | 1008.7 |
| 20260505203425 | 56 | 45 | 3.0 | 8.0 | 0.00 | 0.00 | 0.00 | 91 | 1008.7 |
| 20260505203245 | 56 | 45 | 3.0 | 8.0 | 0.00 | 0.00 | 0.00 | 91 | 1008.7 |
| 20260505203110 | 56 | 68 | 4.0 | 8.0 | 0.00 | 0.00 | 0.00 | 91 | 1008.7 |
| 20260505202930 | 56 | 68 | 4.0 | 8.0 | 0.00 | 0.00 | 0.00 | 91 | 1008.6 |
| 20260505202750 | 56 | 22 | 4.0 | 7.0 | 0.00 | 0.00 | 0.00 | 91 | 1008.6 |
| 20260505202610 | 56 | 45 | 4.0 | 8.0 | 0.00 | 0.00 | 0.00 | 91 | 1008.6 |
| 20260505202430 | 56 | 0 | 4.0 | 8.0 | 0.00 | 0.00 | 0.00 | 91 | 1008.6 |
| 20260505202235 | 56 | 22 | 4.0 | 8.0 | 0.00 | 0.00 | 0.00 | 91 | 1008.6 |
| 20260505202038 | 56 | 22 | 3.0 | 6.0 | 0.00 | 0.00 | 0.00 | 91 | 1008.7 |
| 20260505201901 | 56 | 0 | 2.0 | 6.0 | 0.00 | 0.00 | 0.00 | 91 | 1008.7 |
| 20260505201848 | 56 | 68 | 2.0 | 6.0 | 0.00 | 0.00 | 0.00 | 91 | 1008.7 |
| 20260505201705 | 56 | 315 | 2.0 | 6.0 | 0.00 | 0.00 | 0.00 | 91 | 1008.7 |
| 20260505201508 | 56 | 22 | 2.0 | 7.0 | 0.00 | 0.00 | 0.00 | 91 | 1008.7 |
| 20260505201315 | 57 | 45 | 2.0 | 7.0 | 0.00 | 0.00 | 0.00 | 91 | 1008.6 |
| 20260505201120 | 57 | 45 | 3.0 | 7.0 | 0.00 | 0.00 | 0.00 | 91 | 1008.7 |
| 20260505200935 | 57 | 45 | 3.0 | 6.0 | 0.00 | 0.00 | 0.00 | 91 | 1008.7 |
| 20260505200755 | 57 | 22 | 4.0 | 7.0 | 0.00 | 0.00 | 0.00 | 91 | 1008.6 |
| 20260505200554 | 57 | 22 | 4.0 | 7.0 | 0.00 | 0.00 | 0.00 | 91 | 1008.6 |
| 20260505200401 | 57 | 22 | 4.0 | 7.0 | 0.00 | 0.00 | 0.00 | 91 | 1008.6 |
| 20260505200217 | 57 | 45 | 4.0 | 9.0 | 0.00 | 0.00 | 0.00 | 91 | 1008.6 |
| 20260505200056 | 57 | 22 | 3.0 | 9.0 | 0.00 | 0.00 | 0.00 | 91 | 1008.6 |
| 20260505200037 | 57 | 68 | 3.0 | 9.0 | 0.00 | 0.00 | 0.00 | 91 | 1008.6 |
| 20260505195853 | 57 | 45 | 3.0 | 9.0 | 0.00 | 0.00 | 0.00 | 90 | 1008.6 |
| 20260505195657 | 57 | 90 | 3.0 | 6.0 | 0.00 | 0.00 | 0.00 | 90 | 1008.6 |
| 20260505195458 | 57 | 68 | 3.0 | 6.0 | 0.00 | 0.00 | 0.00 | 90 | 1008.7 |
| 20260505195319 | 57 | 68 | 3.0 | 6.0 | 0.00 | 0.00 | 0.00 | 90 | 1008.6 |
| 20260505195125 | 57 | 22 | 3.0 | 5.0 | 0.00 | 0.00 | 0.00 | 90 | 1008.5 |
| 20260505194944 | 57 | 90 | 3.0 | 8.0 | 0.00 | 0.00 | 0.00 | 90 | 1008.5 |
| 20260505194757 | 57 | 68 | 3.0 | 8.0 | 0.00 | 0.00 | 0.00 | 90 | 1008.5 |
| 20260505194605 | 57 | 22 | 3.0 | 8.0 | 0.00 | 0.00 | 0.00 | 90 | 1008.5 |
| 20260505194420 | 57 | 270 | 2.0 | 8.0 | 0.00 | 0.00 | 0.00 | 90 | 1008.6 |
| 20260505194238 | 57 | 22 | 2.0 | 7.0 | 0.00 | 0.00 | 0.00 | 90 | 1008.6 |
| 20260505194206 | 57 | 338 | 2.0 | 6.0 | 0.00 | 0.00 | 0.00 | 90 | 1008.6 |
| 20260505194047 | 57 | 90 | 2.0 | 6.0 | 0.00 | 0.00 | 0.00 | 90 | 1008.7 |
| 20260505193910 | 57 | 22 | 2.0 | 6.0 | 0.00 | 0.00 | 0.00 | 90 | 1008.6 |
| 20260505193715 | 57 | 68 | 2.0 | 5.0 | 0.00 | 0.00 | 0.00 | 90 | 1008.6 |
| 20260505193535 | 57 | 45 | 2.0 | 5.0 | 0.00 | 0.00 | 0.00 | 90 | 1008.7 |
| 20260505193337 | 57 | 45 | 2.0 | 5.0 | 0.00 | 0.00 | 0.00 | 90 | 1008.6 |
| 20260505193148 | 57 | 45 | 2.0 | 4.0 | 0.00 | 0.00 | 0.00 | 90 | 1008.6 |
| 20260505192955 | 58 | 22 | 3.0 | 4.0 | 0.00 | 0.00 | 0.00 | 90 | 1008.5 |
| 20260505192810 | 58 | 22 | 3.0 | 3.0 | 0.00 | 0.00 | 0.00 | 90 | 1008.5 |
| 20260505192630 | 58 | 68 | 4.0 | 8.0 | 0.00 | 0.00 | 0.00 | 90 | 1008.6 |
| 20260505192529 | 58 | 68 | 4.0 | 9.0 | 0.00 | 0.00 | 0.00 | 90 | 1008.6 |
| 20260505192443 | 58 | 68 | 4.0 | 9.0 | 0.00 | 0.00 | 0.00 | 90 | 1008.5 |
| 20260505192255 | 58 | 68 | 4.0 | 9.0 | 0.00 | 0.00 | 0.00 | 89 | 1008.5 |
| 20260505192107 | 58 | 68 | 4.0 | 9.0 | 0.00 | 0.00 | 0.00 | 89 | 1008.5 |
| 20260505191914 | 58 | 45 | 4.0 | 6.0 | 0.00 | 0.00 | 0.00 | 89 | 1008.5 |
| 20260505191725 | 58 | 45 | 4.0 | 6.0 | 0.00 | 0.00 | 0.00 | 89 | 1008.4 |
| 20260505191539 | 58 | 22 | 4.0 | 6.0 | 0.00 | 0.00 | 0.00 | 89 | 1008.4 |
| 20260505191350 | 58 | 22 | 4.0 | 6.0 | 0.00 | 0.00 | 0.00 | 89 | 1008.4 |
| 20260505191155 | 58 | 22 | 4.0 | 6.0 | 0.00 | 0.00 | 0.00 | 89 | 1008.3 |
| 20260505191005 | 58 | 22 | 4.0 | 9.0 | 0.00 | 0.00 | 0.00 | 89 | 1008.4 |
| 20260505190805 | 59 | 22 | 5.0 | 11.0 | 0.00 | 0.00 | 0.00 | 89 | 1008.3 |
| 20260505190717 | 59 | 45 | 4.0 | 9.0 | 0.00 | 0.00 | 0.00 | 88 | 1008.4 |
| 20260505190610 | 59 | 338 | 4.0 | 7.0 | 0.00 | 0.00 | 0.00 | 88 | 1008.3 |
| 20260505190414 | 59 | 315 | 4.0 | 8.0 | 0.00 | 0.00 | 0.00 | 88 | 1008.4 |
| 20260505190220 | 59 | 22 | 3.0 | 8.0 | 0.00 | 0.00 | 0.00 | 88 | 1008.4 |
| 20260505190030 | 59 | 22 | 2.0 | 8.0 | 0.00 | 0.00 | 0.00 | 88 | 1008.4 |
| 20260505185835 | 59 | 135 | 2.0 | 5.0 | 0.00 | 0.00 | 0.00 | 88 | 1008.5 |
| 20260505185646 | 59 | 22 | 2.0 | 5.0 | 0.00 | 0.00 | 0.00 | 87 | 1008.4 |
| 20260505185508 | 59 | 338 | 3.0 | 3.0 | 0.00 | 0.00 | 0.00 | 87 | 1008.5 |
| 20260505185317 | 59 | 338 | 3.0 | 8.0 | 0.00 | 0.00 | 0.00 | 87 | 1008.4 |
| 20260505185130 | 59 | 22 | 4.0 | 8.0 | 0.00 | 0.00 | 0.00 | 87 | 1008.3 |
| 20260505185106 | 59 | 22 | 4.0 | 8.0 | 0.00 | 0.00 | 0.00 | 87 | 1008.3 |
| 20260505184955 | 59 | 22 | 4.0 | 8.0 | 0.00 | 0.00 | 0.00 | 87 | 1008.4 |
| 20260505184801 | 60 | 22 | 5.0 | 8.0 | 0.00 | 0.00 | 0.00 | 87 | 1008.3 |
| 20260505184615 | 60 | 68 | 5.0 | 8.0 | 0.00 | 0.00 | 0.00 | 87 | 1008.3 |
| 20260505184425 | 60 | 22 | 5.0 | 8.0 | 0.00 | 0.00 | 0.00 | 87 | 1008.3 |
| 20260505184230 | 60 | 22 | 4.0 | 8.0 | 0.00 | 0.00 | 0.00 | 86 | 1008.3 |
| 20260505184040 | 60 | 338 | 4.0 | 7.0 | 0.00 | 0.00 | 0.00 | 86 | 1008.3 |
| 20260505183857 | 60 | 68 | 4.0 | 7.0 | 0.00 | 0.00 | 0.00 | 86 | 1008.3 |
| 20260505183715 | 60 | 45 | 3.0 | 7.0 | 0.00 | 0.00 | 0.00 | 86 | 1008.1 |
| 20260505183518 | 60 | 45 | 3.0 | 6.0 | 0.00 | 0.00 | 0.00 | 86 | 1008.2 |
| 20260505183320 | 60 | 68 | 3.0 | 6.0 | 0.00 | 0.00 | 0.00 | 86 | 1008.1 |
| 20260505183222 | 60 | 68 | 3.0 | 6.0 | 0.00 | 0.00 | 0.00 | 85 | 1008.1 |
| 20260505183137 | 60 | 45 | 3.0 | 6.0 | 0.00 | 0.00 | 0.00 | 85 | 1008.2 |
| 20260505183000 | 60 | 90 | 3.0 | 6.0 | 0.00 | 0.00 | 0.00 | 85 | 1008.1 |
| 20260505182809 | 60 | 68 | 3.0 | 6.0 | 0.00 | 0.00 | 0.00 | 85 | 1008.2 |
| 20260505182630 | 60 | 90 | 4.0 | 9.0 | 0.00 | 0.00 | 0.00 | 85 | 1008.1 |
| 20260505182435 | 61 | 68 | 4.0 | 9.0 | 0.00 | 0.00 | 0.00 | 85 | 1008.1 |
| 20260505182254 | 61 | 45 | 4.0 | 9.0 | 0.00 | 0.00 | 0.00 | 85 | 1008.2 |
| 20260505182055 | 61 | 68 | 3.0 | 9.0 | 0.00 | 0.00 | 0.00 | 85 | 1008.2 |
| 20260505181900 | 61 | 90 | 4.0 | 9.0 | 0.00 | 0.00 | 0.00 | 85 | 1008.3 |
| 20260505181708 | 61 | 22 | 4.0 | 9.0 | 0.00 | 0.00 | 0.00 | 84 | 1008.2 |
| 20260505181656 | 61 | 22 | 4.0 | 7.0 | 0.00 | 0.00 | 0.00 | 85 | 1008.3 |
| 20260505181510 | 61 | 22 | 4.0 | 7.0 | 0.00 | 0.00 | 0.00 | 84 | 1008.2 |
| 20260505181325 | 61 | 22 | 4.0 | 9.0 | 0.00 | 0.00 | 0.00 | 84 | 1008.3 |
| 20260505181135 | 61 | 22 | 5.0 | 9.0 | 0.00 | 0.00 | 0.00 | 84 | 1008.3 |
| 20260505180955 | 61 | 22 | 4.0 | 9.0 | 0.00 | 0.00 | 0.00 | 84 | 1008.3 |
| 20260505180815 | 61 | 45 | 3.0 | 7.0 | 0.00 | 0.00 | 0.00 | 84 | 1008.3 |
| 20260505180635 | 61 | 45 | 3.0 | 6.0 | 0.00 | 0.00 | 0.00 | 84 | 1008.4 |
| 20260505180455 | 61 | 68 | 4.0 | 6.0 | 0.00 | 0.00 | 0.00 | 84 | 1008.3 |
| 20260505180255 | 62 | 338 | 3.0 | 5.0 | 0.00 | 0.00 | 0.00 | 83 | 1008.3 |
| 20260505180117 | 62 | 45 | 4.0 | 5.0 | 0.00 | 0.00 | 0.00 | 83 | 1008.3 |
| 20260505180042 | 62 | 45 | 4.0 | 5.0 | 0.00 | 0.00 | 0.00 | 83 | 1008.3 |
| 20260505175935 | 62 | 45 | 4.0 | 5.0 | 0.00 | 0.00 | 0.00 | 83 | 1008.3 |
| 20260505175800 | 62 | 45 | 4.0 | 7.0 | 0.00 | 0.00 | 0.00 | 83 | 1008.3 |
| 20260505175621 | 62 | 22 | 5.0 | 8.0 | 0.00 | 0.00 | 0.00 | 83 | 1008.3 |
| 20260505175430 | 62 | 0 | 5.0 | 8.0 | 0.00 | 0.00 | 0.00 | 83 | 1008.3 |
| 20260505175238 | 62 | 22 | 4.0 | 8.0 | 0.00 | 0.00 | 0.00 | 83 | 1008.3 |
| 20260505175050 | 62 | 68 | 4.0 | 9.0 | 0.00 | 0.00 | 0.00 | 83 | 1008.3 |
| 20260505174900 | 62 | 45 | 4.0 | 9.0 | 0.00 | 0.00 | 0.00 | 82 | 1008.3 |
| 20260505174710 | 62 | 22 | 3.0 | 9.0 | 0.00 | 0.00 | 0.00 | 82 | 1008.3 |
| 20260505174515 | 62 | 22 | 3.0 | 5.0 | 0.00 | 0.00 | 0.00 | 82 | 1008.3 |
| 20260505174330 | 62 | 22 | 3.0 | 5.0 | 0.00 | 0.00 | 0.00 | 82 | 1008.3 |
| 20260505174204 | 62 | 22 | 3.0 | 5.0 | 0.00 | 0.00 | 0.00 | 82 | 1008.3 |
| 20260505174135 | 62 | 338 | 3.0 | 5.0 | 0.00 | 0.00 | 0.00 | 82 | 1008.3 |
| 20260505173931 | 62 | 22 | 3.0 | 5.0 | 0.00 | 0.00 | 0.00 | 82 | 1008.2 |
| 20260505173755 | 62 | 22 | 3.0 | 5.0 | 0.00 | 0.00 | 0.00 | 82 | 1008.3 |
| 20260505173615 | 63 | 68 | 3.0 | 5.0 | 0.00 | 0.00 | 0.00 | 82 | 1008.2 |
| 20260505173415 | 63 | 22 | 3.0 | 6.0 | 0.00 | 0.00 | 0.00 | 81 | 1008.2 |
| 20260505173231 | 63 | 22 | 4.0 | 7.0 | 0.00 | 0.00 | 0.00 | 81 | 1008.2 |
| 20260505173046 | 63 | 45 | 4.0 | 7.0 | 0.00 | 0.00 | 0.00 | 81 | 1008.1 |
| 20260505172855 | 63 | 45 | 3.0 | 7.0 | 0.00 | 0.00 | 0.00 | 81 | 1008.2 |
| 20260505172658 | 63 | 45 | 4.0 | 7.0 | 0.00 | 0.00 | 0.00 | 80 | 1008.2 |
| 20260505172517 | 63 | 22 | 4.0 | 7.0 | 0.00 | 0.00 | 0.00 | 80 | 1008.2 |
| 20260505172443 | 63 | 22 | 4.0 | 7.0 | 0.00 | 0.00 | 0.00 | 80 | 1008.3 |
| 20260505172340 | 63 | 22 | 3.0 | 7.0 | 0.00 | 0.00 | 0.00 | 80 | 1008.3 |
| 20260505172150 | 63 | 22 | 3.0 | 7.0 | 0.00 | 0.00 | 0.00 | 81 | 1008.2 |
| 20260505172008 | 63 | 45 | 3.0 | 6.0 | 0.00 | 0.00 | 0.00 | 80 | 1008.4 |
| 20260505171817 | 63 | 0 | 4.0 | 6.0 | 0.00 | 0.00 | 0.00 | 80 | 1008.4 |
| 20260505171637 | 63 | 45 | 4.0 | 6.0 | 0.00 | 0.00 | 0.00 | 80 | 1008.3 |
| 20260505171458 | 63 | 45 | 4.0 | 6.0 | 0.00 | 0.00 | 0.00 | 80 | 1008.3 |
| 20260505171315 | 63 | 22 | 5.0 | 8.0 | 0.00 | 0.00 | 0.00 | 80 | 1008.2 |
| 20260505171115 | 64 | 45 | 4.0 | 9.0 | 0.00 | 0.00 | 0.00 | 80 | 1008.2 |
| 20260505170920 | 64 | 45 | 5.0 | 9.0 | 0.00 | 0.00 | 0.00 | 80 | 1008.3 |
| 20260505170838 | 64 | 22 | 5.0 | 9.0 | 0.00 | 0.00 | 0.00 | 79 | 1008.3 |
| 20260505170737 | 64 | 22 | 5.0 | 9.0 | 0.00 | 0.00 | 0.00 | 79 | 1008.3 |
| 20260505170538 | 64 | 45 | 5.0 | 10.0 | 0.00 | 0.00 | 0.00 | 79 | 1008.3 |
| 20260505170355 | 64 | 248 | 5.0 | 10.0 | 0.00 | 0.00 | 0.00 | 79 | 1008.3 |
| 20260505170215 | 64 | 338 | 4.0 | 10.0 | 0.00 | 0.00 | 0.00 | 78 | 1008.3 |
| 20260505170015 | 64 | 22 | 4.0 | 10.0 | 0.00 | 0.00 | 0.00 | 79 | 1008.3 |
| 20260505165835 | 64 | 338 | 5.0 | 10.0 | 0.00 | 0.00 | 0.00 | 79 | 1008.3 |
| 20260505165642 | 65 | 22 | 4.0 | 7.0 | 0.00 | 0.00 | 0.00 | 78 | 1008.3 |
| 20260505165505 | 65 | 45 | 4.0 | 7.0 | 0.00 | 0.00 | 0.00 | 77 | 1008.3 |
| 20260505165315 | 65 | 292 | 4.0 | 10.0 | 0.00 | 0.00 | 0.00 | 77 | 1008.4 |
| 20260505165132 | 65 | 338 | 4.0 | 10.0 | 0.00 | 0.00 | 0.00 | 77 | 1008.4 |
| 20260505164949 | 66 | 22 | 4.0 | 10.0 | 0.00 | 0.00 | 0.00 | 77 | 1008.3 |
| 20260505164755 | 66 | 338 | 4.0 | 8.0 | 0.00 | 0.00 | 0.00 | 76 | 1008.3 |
| 20260505164555 | 66 | 45 | 3.0 | 7.0 | 0.00 | 0.00 | 0.00 | 74 | 1008.3 |
| 20260505164400 | 66 | 315 | 3.0 | 7.0 | 0.00 | 0.00 | 0.00 | 74 | 1008.4 |
| 20260505164210 | 67 | 270 | 3.0 | 9.0 | 0.00 | 0.00 | 0.00 | 75 | 1008.4 |
| 20260505164010 | 67 | 45 | 3.0 | 9.0 | 0.00 | 0.00 | 0.00 | 74 | 1008.4 |
| 20260505163812 | 67 | 315 | 3.0 | 9.0 | 0.00 | 0.00 | 0.00 | 73 | 1008.4 |
| 20260505163618 | 67 | 22 | 3.0 | 5.0 | 0.00 | 0.00 | 0.00 | 72 | 1008.4 |
| 20260505163421 | 67 | 68 | 3.0 | 3.0 | 0.00 | 0.00 | 0.00 | 72 | 1008.5 |
| 20260505163343 | 67 | 225 | 3.0 | 3.0 | 0.00 | 0.00 | 0.00 | 71 | 1008.3 |
| 20260505163235 | 67 | 225 | 3.0 | 7.0 | 0.00 | 0.00 | 0.00 | 72 | 1008.4 |
| 20260505163055 | 67 | 45 | 3.0 | 7.0 | 0.00 | 0.00 | 0.00 | 72 | 1008.3 |
| 20260505162910 | 67 | 270 | 3.0 | 9.0 | 0.00 | 0.00 | 0.00 | 71 | 1008.4 |
| 20260505162725 | 67 | 45 | 3.0 | 9.0 | 0.00 | 0.00 | 0.00 | 72 | 1008.4 |
| 20260505162526 | 67 | 270 | 3.0 | 9.0 | 0.00 | 0.00 | 0.00 | 72 | 1008.4 |
| 20260505162338 | 67 | 22 | 4.0 | 8.0 | 0.00 | 0.00 | 0.00 | 71 | 1008.4 |
| 20260505162200 | 67 | 248 | 4.0 | 8.0 | 0.00 | 0.00 | 0.00 | 72 | 1008.3 |
| 20260505162010 | 67 | 22 | 4.0 | 8.0 | 0.00 | 0.00 | 0.00 | 72 | 1008.3 |
| 20260505161820 | 67 | 68 | 4.0 | 9.0 | 0.00 | 0.00 | 0.00 | 70 | 1008.4 |
| 20260505161620 | 68 | 68 | 4.0 | 9.0 | 0.00 | 0.00 | 0.00 | 71 | 1008.3 |
| 20260505161438 | 68 | 68 | 4.0 | 9.0 | 0.00 | 0.00 | 0.00 | 70 | 1008.4 |
| 20260505161245 | 68 | 338 | 3.0 | 7.0 | 0.00 | 0.00 | 0.00 | 70 | 1008.3 |
| 20260505161100 | 68 | 315 | 3.0 | 7.0 | 0.00 | 0.00 | 0.00 | 70 | 1008.3 |
| 20260505160910 | 67 | 22 | 3.0 | 6.0 | 0.00 | 0.00 | 0.00 | 68 | 1008.4 |
| 20260505160710 | 67 | 22 | 3.0 | 6.0 | 0.00 | 0.00 | 0.00 | 69 | 1008.4 |
| 20260505160508 | 67 | 270 | 3.0 | 7.0 | 0.00 | 0.00 | 0.00 | 69 | 1008.5 |
| 20260505160318 | 67 | 0 | 3.0 | 7.0 | 0.00 | 0.00 | 0.00 | 70 | 1008.5 |
| 20260505160130 | 67 | 22 | 3.0 | 6.0 | 0.00 | 0.00 | 0.00 | 70 | 1008.5 |
| 20260505153231 | 68 | 22 | 4.0 | 7.0 | 0.00 | 0.00 | 0.00 | 70 | 1008.7 |
| 20260505153035 | 68 | 22 | 3.0 | 7.0 | 0.00 | 0.00 | 0.00 | 70 | 1008.7 |
| 20260505152840 | 68 | 22 | 3.0 | 9.0 | 0.00 | 0.00 | 0.00 | 69 | 1008.8 |
| 20260505152658 | 68 | 45 | 3.0 | 9.0 | 0.00 | 0.00 | 0.00 | 70 | 1008.8 |
| 20260505152500 | 68 | 22 | 3.0 | 8.0 | 0.00 | 0.00 | 0.00 | 70 | 1008.7 |
| 20260505152315 | 68 | 292 | 3.0 | 5.0 | 0.00 | 0.00 | 0.00 | 70 | 1008.7 |
| 20260505152236 | 68 | 292 | 3.0 | 5.0 | 0.00 | 0.00 | 0.00 | 70 | 1008.7 |
| 20260505152117 | 68 | 45 | 3.0 | 5.0 | 0.00 | 0.00 | 0.00 | 69 | 1008.7 |
| 20260505151922 | 68 | 22 | 2.0 | 5.0 | 0.00 | 0.00 | 0.00 | 69 | 1008.7 |
| 20260505151727 | 68 | 292 | 2.0 | 4.0 | 0.00 | 0.00 | 0.00 | 69 | 1008.7 |
| 20260505151542 | 68 | 292 | 3.0 | 4.0 | 0.00 | 0.00 | 0.00 | 70 | 1008.7 |
| 20260505151345 | 68 | 270 | 3.0 | 6.0 | 0.00 | 0.00 | 0.00 | 70 | 1008.7 |
| 20260505151155 | 67 | 292 | 3.0 | 6.0 | 0.00 | 0.00 | 0.00 | 70 | 1008.7 |
| 20260505151015 | 67 | 45 | 3.0 | 8.0 | 0.00 | 0.00 | 0.00 | 70 | 1008.8 |
| 20260505150825 | 67 | 315 | 3.0 | 8.0 | 0.00 | 0.00 | 0.00 | 70 | 1008.7 |
| 20260505150630 | 67 | 0 | 3.0 | 8.0 | 0.00 | 0.00 | 0.00 | 70 | 1008.7 |
| 20260505150433 | 68 | 270 | 3.0 | 8.0 | 0.00 | 0.00 | 0.00 | 70 | 1008.8 |
| 20260505150255 | 68 | 315 | 4.0 | 5.0 | 0.00 | 0.00 | 0.00 | 70 | 1008.8 |
| 20260505150110 | 68 | 315 | 3.0 | 5.0 | 0.00 | 0.00 | 0.00 | 69 | 1008.7 |
| 20260505140652 | 71 | 45 | 5.0 | 11.0 | 0.00 | 0.00 | 0.00 | 66 | 1008.8 |
| 20260505140504 | 71 | 292 | 5.0 | 11.0 | 0.00 | 0.00 | 0.00 | 67 | 1008.9 |
| 20260505140316 | 71 | 22 | 4.0 | 11.0 | 0.00 | 0.00 | 0.00 | 66 | 1008.9 |
| 20260505140135 | 70 | 45 | 4.0 | 7.0 | 0.00 | 0.00 | 0.00 | 63 | 1008.9 |
| 20260505130215 | 71 | 270 | 3.0 | 7.0 | 0.00 | 0.00 | 0.00 | 65 | 1009.1 |
| 20260505124915 | 68 | 292 | 3.0 | 5.0 | 0.00 | 0.00 | 0.00 | 62 | 1009.2 |
| 20260505124725 | 68 | 292 | 3.0 | 5.0 | 0.00 | 0.00 | 0.00 | 63 | 1009.3 |
| 20260505124540 | 67 | 292 | 3.0 | 5.0 | 0.00 | 0.00 | 0.00 | 65 | 1009.2 |
| 20260505124405 | 67 | 292 | 3.0 | 5.0 | 0.00 | 0.00 | 0.00 | 67 | 1009.3 |
| 20260505124225 | 67 | 315 | 3.0 | 5.0 | 0.00 | 0.00 | 0.00 | 68 | 1009.3 |
| 20260505124035 | 67 | 315 | 3.0 | 5.0 | 0.00 | 0.00 | 0.00 | 68 | 1009.4 |
| 20260505123857 | 67 | 292 | 3.0 | 5.0 | 0.00 | 0.00 | 0.00 | 68 | 1009.4 |
| 20260505123800 | 67 | 292 | 4.0 | 5.0 | 0.00 | 0.00 | 0.00 | 70 | 1009.4 |
| 20260505123705 | 67 | 292 | 4.0 | 5.0 | 0.00 | 0.00 | 0.00 | 68 | 1009.4 |
| 20260505123515 | 67 | 270 | 4.0 | 8.0 | 0.00 | 0.00 | 0.00 | 70 | 1009.5 |
| 20260505123325 | 67 | 270 | 4.0 | 8.0 | 0.00 | 0.00 | 0.00 | 70 | 1009.5 |
| 20260505123135 | 68 | 292 | 4.0 | 8.0 | 0.00 | 0.00 | 0.00 | 70 | 1009.4 |
| 20260505122935 | 68 | 270 | 3.0 | 6.0 | 0.00 | 0.00 | 0.00 | 70 | 1009.4 |
| 20260505122745 | 68 | 315 | 2.0 | 5.0 | 0.00 | 0.00 | 0.00 | 69 | 1009.5 |
| 20260505122605 | 68 | 292 | 2.0 | 5.0 | 0.00 | 0.00 | 0.00 | 70 | 1009.5 |
| 20260505122425 | 68 | 248 | 2.0 | 5.0 | 0.00 | 0.00 | 0.00 | 70 | 1009.5 |
| 20260505122235 | 68 | 225 | 2.0 | 5.0 | 0.00 | 0.00 | 0.00 | 70 | 1009.5 |
| 20260505122050 | 68 | 292 | 2.0 | 5.0 | 0.00 | 0.00 | 0.00 | 68 | 1009.6 |
| 20260505121849 | 68 | 292 | 3.0 | 6.0 | 0.00 | 0.00 | 0.00 | 67 | 1009.5 |
| 20260505121704 | 68 | 292 | 3.0 | 6.0 | 0.00 | 0.00 | 0.00 | 68 | 1009.6 |
| 20260505121525 | 68 | 22 | 3.0 | 6.0 | 0.00 | 0.00 | 0.00 | 69 | 1009.6 |
| 20260505121345 | 67 | 45 | 3.0 | 6.0 | 0.00 | 0.00 | 0.00 | 70 | 1009.6 |
| 20260505121150 | 67 | 270 | 2.0 | 5.0 | 0.00 | 0.00 | 0.00 | 69 | 1009.6 |
| 20260505121012 | 67 | 292 | 2.0 | 4.0 | 0.00 | 0.00 | 0.00 | 71 | 1009.7 |
| 20260505120830 | 67 | 292 | 2.0 | 5.0 | 0.00 | 0.00 | 0.00 | 69 | 1009.7 |
| 20260505120645 | 67 | 292 | 2.0 | 5.0 | 0.00 | 0.00 | 0.00 | 70 | 1009.7 |
| 20260505120510 | 67 | 292 | 2.0 | 5.0 | 0.00 | 0.00 | 0.00 | 71 | 1009.6 |
| 20260505120335 | 67 | 270 | 2.0 | 5.0 | 0.00 | 0.00 | 0.00 | 72 | 1009.7 |
| 20260505120155 | 67 | 248 | 2.0 | 3.0 | 0.00 | 0.00 | 0.00 | 72 | 1009.7 |
| 20260505120015 | 67 | 248 | 2.0 | 5.0 | 0.00 | 0.00 | 0.00 | 72 | 1009.7 |
| 20260505115838 | 67 | 270 | 2.0 | 5.0 | 0.00 | 0.00 | 0.00 | 71 | 1009.6 |
| 20260505115638 | 67 | 270 | 2.0 | 5.0 | 0.00 | 0.00 | 0.00 | 72 | 1009.6 |
| 20260505115500 | 67 | 202 | 2.0 | 3.0 | 0.00 | 0.00 | 0.00 | 72 | 1009.7 |
| 20260505115315 | 67 | 202 | 2.0 | 5.0 | 0.00 | 0.00 | 0.00 | 72 | 1009.6 |
| 20260505115120 | 67 | 202 | 2.0 | 5.0 | 0.00 | 0.00 | 0.00 | 72 | 1009.6 |
| 20260505115005 | 67 | 202 | 3.0 | 5.0 | 0.00 | 0.00 | 0.00 | 72 | 1009.7 |
| 20260505114928 | 68 | 202 | 3.0 | 5.0 | 0.00 | 0.00 | 0.00 | 73 | 1009.7 |
| 20260505114735 | 68 | 225 | 2.0 | 5.0 | 0.00 | 0.00 | 0.00 | 73 | 1009.7 |
| 20260505114535 | 68 | 202 | 2.0 | 5.0 | 0.00 | 0.00 | 0.00 | 73 | 1009.6 |
| 20260505114355 | 68 | 202 | 2.0 | 5.0 | 0.00 | 0.00 | 0.00 | 71 | 1009.5 |
| 20260505114155 | 68 | 202 | 1.0 | 3.0 | 0.00 | 0.00 | 0.00 | 70 | 1009.5 |
| 20260505113956 | 68 | 112 | 1.0 | 3.0 | 0.00 | 0.00 | 0.00 | 70 | 1009.5 |
| 20260505113820 | 68 | 112 | 1.0 | 2.0 | 0.00 | 0.00 | 0.00 | 72 | 1009.5 |
| 20260505113635 | 67 | 158 | 1.0 | 2.0 | 0.00 | 0.00 | 0.00 | 73 | 1009.5 |
| 20260505113433 | 67 | 158 | 1.0 | 2.0 | 0.00 | 0.00 | 0.00 | 72 | 1009.6 |
| 20260505113258 | 68 | 135 | 1.0 | 3.0 | 0.00 | 0.00 | 0.00 | 72 | 1009.6 |
| 20260505113237 | 68 | 315 | 1.0 | 3.0 | 0.00 | 0.00 | 0.00 | 72 | 1009.5 |
| 20260505113046 | 68 | 315 | 1.0 | 5.0 | 0.00 | 0.00 | 0.00 | 73 | 1009.6 |
| 20260505112905 | 68 | 315 | 1.0 | 5.0 | 0.00 | 0.00 | 0.00 | 72 | 1009.7 |
| 20260505112725 | 68 | 45 | 2.0 | 5.0 | 0.00 | 0.00 | 0.00 | 74 | 1009.7 |
| 20260505112535 | 68 | 45 | 2.0 | 5.0 | 0.00 | 0.00 | 0.00 | 74 | 1009.7 |
| 20260505112348 | 68 | 45 | 2.0 | 5.0 | 0.00 | 0.00 | 0.00 | 74 | 1009.7 |
| 20260505112210 | 68 | 45 | 2.0 | 5.0 | 0.00 | 0.00 | 0.00 | 71 | 1009.7 |
| 20260505112015 | 68 | 45 | 1.0 | 5.0 | 0.00 | 0.00 | 0.00 | 75 | 1009.8 |
| 20260505111650 | 67 | 45 | 1.0 | 5.0 | 0.00 | 0.00 | 0.00 | 76 | 1009.8 |
| 20260505111505 | 67 | 22 | 1.0 | 5.0 | 0.00 | 0.00 | 0.00 | 72 | 1009.8 |
| 20260505111431 | 67 | 22 | 1.0 | 5.0 | 0.00 | 0.00 | 0.00 | 72 | 1009.8 |
| 20260505111325 | 67 | 22 | 0.0 | 4.0 | 0.00 | 0.00 | 0.00 | 71 | 1009.8 |
| 20260505111130 | 67 | 225 | 1.0 | 4.0 | 0.00 | 0.00 | 0.00 | 70 | 1009.9 |
| 20260505110933 | 67 | 180 | 1.0 | 2.0 | 0.00 | 0.00 | 0.00 | 72 | 1009.9 |
| 20260505110749 | 67 | 248 | 1.0 | 4.0 | 0.00 | 0.00 | 0.00 | 72 | 1009.8 |
| 20260505110557 | 67 | 248 | 1.0 | 5.0 | 0.00 | 0.00 | 0.00 | 73 | 1009.8 |
| 20260505110409 | 67 | 248 | 1.0 | 5.0 | 0.00 | 0.00 | 0.00 | 73 | 1009.9 |
| 20260505110233 | 67 | 270 | 1.0 | 5.0 | 0.00 | 0.00 | 0.00 | 72 | 1009.9 |
| 20260505101905 | 65 | 68 | 3.0 | 5.0 | 0.00 | 0.00 | 0.00 | 80 | 1010.1 |
| 20260505101715 | 65 | 68 | 3.0 | 6.0 | 0.00 | 0.00 | 0.00 | 78 | 1010.2 |
| 20260505101520 | 65 | 90 | 2.0 | 6.0 | 0.00 | 0.00 | 0.00 | 78 | 1010.2 |
| 20260505101335 | 65 | 45 | 2.0 | 6.0 | 0.00 | 0.00 | 0.00 | 78 | 1010.1 |
| 20260505101156 | 65 | 270 | 1.0 | 2.0 | 0.00 | 0.00 | 0.00 | 77 | 1010.1 |
| 20260505101000 | 65 | 270 | 1.0 | 3.0 | 0.00 | 0.00 | 0.00 | 76 | 1010.1 |
| 20260505100810 | 65 | 270 | 1.0 | 3.0 | 0.00 | 0.00 | 0.00 | 76 | 1010.1 |
| 20260505100620 | 65 | 270 | 2.0 | 3.0 | 0.00 | 0.00 | 0.00 | 76 | 1010.1 |
| 20260505100445 | 65 | 202 | 2.0 | 2.0 | 0.00 | 0.00 | 0.00 | 74 | 1010.1 |
| 20260505100336 | 65 | 68 | 2.0 | 2.0 | 0.00 | 0.00 | 0.00 | 74 | 1010.1 |
| 20260505100300 | 65 | 68 | 2.0 | 2.0 | 0.00 | 0.00 | 0.00 | 74 | 1010.2 |
| 20260505100115 | 65 | 68 | 2.0 | 3.0 | 0.00 | 0.00 | 0.00 | 75 | 1010.1 |
| 20260505095930 | 65 | 68 | 2.0 | 5.0 | 0.00 | 0.00 | 0.00 | 75 | 1010.1 |
| 20260505095745 | 65 | 68 | 2.0 | 5.0 | 0.00 | 0.00 | 0.00 | 76 | 1010.0 |
| 20260505095555 | 65 | 68 | 2.0 | 5.0 | 0.00 | 0.00 | 0.00 | 75 | 1010.0 |
| 20260505095415 | 65 | 90 | 1.0 | 5.0 | 0.00 | 0.00 | 0.00 | 75 | 1010.0 |
| 20260505095222 | 65 | 45 | 1.0 | 4.0 | 0.00 | 0.00 | 0.00 | 77 | 1010.0 |
| 20260505095030 | 65 | 45 | 0.0 | 4.0 | 0.00 | 0.00 | 0.00 | 76 | 1010.0 |
| 20260505094836 | 64 | 225 | 0.0 | 2.0 | 0.00 | 0.00 | 0.00 | 78 | 1010.1 |
| 20260505094746 | 64 | 225 | 0.0 | 2.0 | 0.00 | 0.00 | 0.00 | 79 | 1010.1 |
| 20260505094643 | 64 | 225 | 0.0 | 2.0 | 0.00 | 0.00 | 0.00 | 79 | 1010.1 |
| 20260505094455 | 64 | 225 | 0.0 | 2.0 | 0.00 | 0.00 | 0.00 | 81 | 1010.2 |
| 20260505094305 | 64 | 225 | 1.0 | 2.0 | 0.00 | 0.00 | 0.00 | 81 | 1010.2 |
| 20260505094125 | 64 | 225 | 1.0 | 2.0 | 0.00 | 0.00 | 0.00 | 84 | 1010.1 |
| 20260505093940 | 63 | 225 | 1.0 | 2.0 | 0.00 | 0.00 | 0.00 | 83 | 1010.1 |
| 20260505093745 | 64 | 225 | 1.0 | 2.0 | 0.00 | 0.00 | 0.00 | 83 | 1010.1 |
| 20260505093550 | 64 | 225 | 1.0 | 2.0 | 0.00 | 0.00 | 0.00 | 81 | 1010.1 |
| 20260505093408 | 64 | 225 | 1.0 | 2.0 | 0.00 | 0.00 | 0.00 | 80 | 1010.2 |
| 20260505093209 | 64 | 158 | 1.0 | 2.0 | 0.00 | 0.00 | 0.00 | 82 | 1010.1 |
| 20260505093131 | 64 | 158 | 1.0 | 2.0 | 0.00 | 0.00 | 0.00 | 80 | 1010.1 |
| 20260505093015 | 64 | 158 | 1.0 | 2.0 | 0.00 | 0.00 | 0.00 | 79 | 1010.2 |
| 20260505092830 | 64 | 90 | 1.0 | 4.0 | 0.00 | 0.00 | 0.00 | 80 | 1010.2 |
| 20260505092640 | 64 | 68 | 1.0 | 4.0 | 0.00 | 0.00 | 0.00 | 82 | 1010.1 |
| 20260505092500 | 63 | 68 | 1.0 | 4.0 | 0.00 | 0.00 | 0.00 | 80 | 1010.2 |
| 20260505092310 | 63 | 112 | 1.0 | 3.0 | 0.00 | 0.00 | 0.00 | 78 | 1010.2 |
| 20260505092115 | 63 | 68 | 1.0 | 2.0 | 0.00 | 0.00 | 0.00 | 81 | 1010.2 |
| 20260505091933 | 63 | 68 | 1.0 | 3.0 | 0.00 | 0.00 | 0.00 | 81 | 1010.2 |
| 20260505091756 | 63 | 68 | 1.0 | 3.0 | 0.00 | 0.00 | 0.00 | 81 | 1010.1 |